Ashgabat, Turkmenistan

7:05 PM TMT on September 02, 2014 (GMT +0500)
Ashgabat | Change Station
CLOSE
Current Station
Airport
Location: Ashgabat,
Elevation: 689 ft
Nearby Weather Stations

Elev 689 ft 37.98 °N, 58.37 °E | Updated 5 minutes ago

Clear
Clear
93 °F
Feels Like 93 °F
N
9
Wind Variable Wind from ESE

Today
High -- | Low -- °F
--% Chance of Precip.
Yesterday
High -- | Low -- °F
Precip. -- in
6:37 AM 7:35 PM
First Quarter, 51% visible
Pressure 29.86 in
Visibility 6.2 miles
Clouds Clear
Dew Point 36 °F
Humidity 13%
Rainfall 0.00 in
Snow Depth Not available.
UV 0 out of 12
Pollen Not available.
Air Quality Not available.
Flu Activity Not available.
METAR UTAA 021400Z 11004MPS 9999 SKC 34/02 Q1011 NOSIG

More Conditions Fewer Conditions

Pressure 29.86 in
Visibility 6.2 miles
Clouds Clear
Dew Point 36 °F
Humidity 13%
Rainfall 0.00 in
Snow Depth Not available.
UV 0 out of 12
Pollen Not available.
Air Quality Not available.
Flu Activity Not available.
METAR UTAA 021400Z 11004MPS 9999 SKC 34/02 Q1011 NOSIG

More Conditions Fewer Conditions

10-Day Weather Forecast

Almanac

Astronomy

Sep. 02, 2014 Rise Set
Actual Time 6:37 AM TMT 7:35 PM TMT
Civil Twilight 6:10 AM TMT 8:02 PM TMT
Nautical Twilight 5:38 AM TMT 8:33 PM TMT
Astronomical Twilight 5:05 AM TMT 9:06 PM TMT
Moon 1:50 PM TMT No Moon Set
Length of Visible Light 13h 51m
Length of Day
12h 58m
Tomorrow will be 2m 21s shorter.
First Quarter, 51% of the Moon is Illuminated
Today
First Quarter
Sep 8
Full
Sep 15
Last Quarter
Sep 24
New
Oct 1
First Quarter

Yesterday's Extremes

Country Highs Country Lows

Community

WunderPhotos

Upload Photos

1,749,670 photos uploaded!

WunderBlogs® & News

Nearby

Snow Depth

Not available.

Earthquake Activity

City Distance Mag. Time & Date
No recent earthquake activity has been reported nearby.
Minimum magnitude displayed is 2.5.

Coastal Water Temperatures

Place Temperature
No Stations Reporting

Nearby Weather Stations